createdAt,value
2019-05-03T00:01:45.345Z,9.10
2019-05-03T00:04:16.151Z,9.10
2019-05-03T00:06:47.121Z,9.10
2019-05-03T00:09:20.217Z,9.10
2019-05-03T00:11:52.710Z,9.10
2019-05-03T00:14:22.692Z,9.10
2019-05-03T00:16:53.097Z,9.10
2019-05-03T00:19:23.466Z,9.10
2019-05-03T00:21:53.865Z,9.10
2019-05-03T00:24:24.182Z,9.10
2019-05-03T00:26:54.567Z,9.10
2019-05-03T00:29:24.952Z,9.10
2019-05-03T00:31:55.839Z,9.00
2019-05-03T00:34:32.396Z,9.10
2019-05-03T00:37:04.893Z,9.10
2019-05-03T00:39:45.715Z,9.00
2019-05-03T00:42:16.244Z,9.00
2019-05-03T00:44:46.608Z,9.00
2019-05-03T00:47:16.999Z,9.00
2019-05-03T00:49:47.387Z,9.00
2019-05-03T00:52:17.750Z,9.00
2019-05-03T00:54:48.410Z,9.00
2019-05-03T00:57:18.802Z,9.10
2019-05-03T00:59:49.126Z,9.10
2019-05-03T01:02:19.691Z,9.10
2019-05-03T01:04:51.753Z,9.20
2019-05-03T01:07:22.378Z,9.20
2019-05-03T01:09:53.020Z,9.20
2019-05-03T01:12:23.402Z,9.30
2019-05-03T01:14:55.339Z,9.30
2019-05-03T01:17:25.688Z,9.40
2019-05-03T01:19:56.034Z,9.40
2019-05-03T01:22:26.695Z,9.40
2019-05-03T01:24:57.127Z,9.50
2019-05-03T01:27:27.497Z,9.50
2019-05-03T01:29:57.862Z,9.60
2019-05-03T01:32:29.348Z,9.70
2019-05-03T01:34:59.708Z,9.80
2019-05-03T01:37:31.921Z,9.80
2019-05-03T01:40:02.604Z,9.80
2019-05-03T01:42:33.388Z,9.80
2019-05-03T01:45:03.935Z,9.80
2019-05-03T01:47:44.483Z,9.80
2019-05-03T01:50:39.593Z,9.90
2019-05-03T01:53:12.530Z,9.90
2019-05-03T01:55:52.585Z,10.00
2019-05-03T01:58:24.682Z,10.00
2019-05-03T02:01:02.837Z,10.00
2019-05-03T02:03:43.964Z,10.10
2019-05-03T02:06:14.497Z,10.10
2019-05-03T02:08:44.744Z,10.20
2019-05-03T02:11:15.093Z,10.20
2019-05-03T02:13:45.546Z,10.20
2019-05-03T02:16:15.868Z,10.20
2019-05-03T02:18:46.244Z,10.20
2019-05-03T02:21:16.641Z,10.20
2019-05-03T02:23:47.092Z,10.20
2019-05-03T02:26:17.452Z,10.20
2019-05-03T02:28:47.823Z,10.20
2019-05-03T02:31:18.206Z,10.20
2019-05-03T02:33:48.488Z,10.20
2019-05-03T02:36:18.854Z,10.10
2019-05-03T02:38:49.317Z,10.10
2019-05-03T02:41:22.531Z,10.10
2019-05-03T02:43:55.778Z,10.00
2019-05-03T02:47:05.353Z,10.00
2019-05-03T02:49:47.073Z,10.00
2019-05-03T02:52:37.151Z,10.00
2019-05-03T02:55:11.213Z,10.00
2019-05-03T02:57:41.587Z,10.00
2019-05-03T03:00:16.291Z,10.00
2019-05-03T03:02:46.823Z,10.10
2019-05-03T03:05:17.400Z,10.10
2019-05-03T03:07:49.755Z,10.10
2019-05-03T03:10:20.423Z,10.10
2019-05-03T03:12:55.238Z,10.20
2019-05-03T03:15:26.271Z,10.20
2019-05-03T03:17:58.035Z,10.20
2019-05-03T03:20:30.125Z,10.20
2019-05-03T03:23:05.973Z,10.20
2019-05-03T03:25:39.543Z,10.20
2019-05-03T03:28:12.868Z,10.20
2019-05-03T03:31:37.460Z,10.20
2019-05-03T03:34:08.776Z,10.20
2019-05-03T03:36:59.358Z,10.20
2019-05-03T03:39:21.136Z,10.20
2019-05-03T03:41:55.551Z,10.20
2019-05-03T03:44:25.879Z,10.20
2019-05-03T03:46:58.335Z,10.20
2019-05-03T03:49:30.045Z,10.20
2019-05-03T03:52:01.849Z,10.20
2019-05-03T03:54:35.454Z,10.20
2019-05-03T03:57:08.215Z,10.20
2019-05-03T03:59:38.140Z,10.10
2019-05-03T04:02:08.539Z,10.10
2019-05-03T04:04:39.709Z,10.10
2019-05-03T04:07:10.511Z,10.10
2019-05-03T04:09:41.716Z,10.10
2019-05-03T04:12:12.527Z,10.10
2019-05-03T04:14:58.265Z,10.10
2019-05-03T04:17:58.057Z,10.10
2019-05-03T04:20:35.935Z,10.10
2019-05-03T04:23:05.875Z,10.10
2019-05-03T04:25:37.097Z,10.00
2019-05-03T04:28:08.449Z,9.90
2019-05-03T04:30:38.866Z,9.80
2019-05-03T04:33:09.208Z,9.70
2019-05-03T04:35:39.571Z,9.60
2019-05-03T04:38:09.969Z,9.50
2019-05-03T04:40:40.426Z,9.40
2019-05-03T04:43:10.878Z,9.20
2019-05-03T04:45:41.182Z,9.10
2019-05-03T04:48:11.528Z,9.00
2019-05-03T04:50:41.956Z,9.00
2019-05-03T04:53:12.326Z,9.00
2019-05-03T04:55:42.669Z,8.90
2019-05-03T04:58:15.929Z,9.00
2019-05-03T05:00:46.556Z,9.00
2019-05-03T05:03:17.072Z,9.00
2019-05-03T05:05:47.391Z,9.00
2019-05-03T05:08:17.785Z,9.10
2019-05-03T05:10:48.532Z,9.20
2019-05-03T05:13:19.379Z,9.20
2019-05-03T05:15:49.717Z,9.20
2019-05-03T05:18:30.063Z,9.30
2019-05-03T05:21:25.442Z,9.30
2019-05-03T05:24:06.037Z,9.30
2019-05-03T05:26:55.228Z,9.20
2019-05-03T05:29:28.136Z,9.10
2019-05-03T05:31:58.752Z,9.10
2019-05-03T05:34:29.116Z,9.10
2019-05-03T05:36:59.517Z,9.10
2019-05-03T05:39:29.875Z,9.00
2019-05-03T05:42:00.276Z,9.00
2019-05-03T05:44:30.598Z,9.00
2019-05-03T05:47:16.968Z,9.00
2019-05-03T05:50:09.134Z,9.00
2019-05-03T05:52:39.475Z,9.00
2019-05-03T05:55:29.028Z,8.90
2019-05-03T05:58:08.001Z,9.00
2019-05-03T06:00:44.753Z,9.10
2019-05-03T06:03:15.007Z,9.10
2019-05-03T06:05:45.390Z,9.20
2019-05-03T06:08:25.138Z,9.20
2019-05-03T06:11:14.903Z,9.20
2019-05-03T06:13:51.204Z,9.20
2019-05-03T06:16:32.533Z,9.20
2019-05-03T06:19:11.290Z,9.30
2019-05-03T06:21:51.079Z,9.30
2019-05-03T06:24:26.597Z,9.30
2019-05-03T06:27:08.338Z,9.30
2019-05-03T06:29:38.930Z,9.20
2019-05-03T06:32:25.252Z,9.20
2019-05-03T06:34:55.304Z,9.20
2019-05-03T06:37:28.271Z,9.10
2019-05-03T06:39:58.660Z,9.20
2019-05-03T06:42:29.013Z,9.20
2019-05-03T06:45:07.386Z,9.20
2019-05-03T06:47:31.453Z,9.20
2019-05-03T06:50:01.856Z,9.30
2019-05-03T06:52:32.672Z,9.20
2019-05-03T06:55:06.501Z,9.20
2019-05-03T06:57:40.111Z,9.20
2019-05-03T07:00:27.441Z,9.20
2019-05-03T07:03:22.521Z,9.20
2019-05-03T07:06:10.643Z,9.20
2019-05-03T07:08:55.297Z,9.30
2019-05-03T07:11:25.628Z,9.40
2019-05-03T07:13:56.058Z,9.40
2019-05-03T07:16:26.576Z,9.40
2019-05-03T07:18:58.608Z,9.40
2019-05-03T07:21:29.243Z,9.40
2019-05-03T07:23:59.603Z,9.30
2019-05-03T07:26:29.981Z,9.30
2019-05-03T07:29:00.376Z,9.30
2019-05-03T07:31:31.222Z,9.20
2019-05-03T07:34:01.729Z,9.30
2019-05-03T07:36:32.560Z,9.30
2019-05-03T07:39:03.035Z,9.30
2019-05-03T07:41:35.653Z,9.40
2019-05-03T07:44:06.070Z,9.30
2019-05-03T07:46:36.412Z,9.30
2019-05-03T07:49:06.736Z,9.30
2019-05-03T07:51:37.115Z,9.30
2019-05-03T07:54:07.538Z,9.30
2019-05-03T07:56:44.490Z,9.30
2019-05-03T07:59:15.047Z,9.30
2019-05-03T08:01:49.321Z,9.30
2019-05-03T08:04:19.666Z,9.40
2019-05-03T08:06:50.094Z,9.30
2019-05-03T08:09:20.417Z,9.30
2019-05-03T08:11:50.862Z,9.40
2019-05-03T08:14:21.206Z,9.50
2019-05-03T08:16:51.568Z,9.50
2019-05-03T08:19:24.499Z,9.50
2019-05-03T08:21:56.477Z,9.60
2019-05-03T08:24:26.236Z,9.70
2019-05-03T08:26:56.610Z,9.80
2019-05-03T08:29:26.983Z,9.90
2019-05-03T08:32:19.186Z,9.90
2019-05-03T08:35:08.465Z,10.00
2019-05-03T08:37:54.548Z,10.00
2019-05-03T08:40:26.626Z,9.90
2019-05-03T08:42:57.029Z,9.90
2019-05-03T08:45:28.067Z,9.90
2019-05-03T08:47:58.457Z,10.00
2019-05-03T08:50:28.795Z,10.20
2019-05-03T08:53:00.348Z,10.30
2019-05-03T08:55:31.368Z,10.60
2019-05-03T08:58:01.818Z,10.90
2019-05-03T09:00:35.327Z,11.20
2019-05-03T09:03:05.863Z,11.30
2019-05-03T09:05:36.600Z,11.30
2019-05-03T09:08:07.972Z,11.40
2019-05-03T09:10:50.302Z,11.50
2019-05-03T09:15:57.014Z,11.40
2019-05-03T09:18:27.566Z,11.30
2019-05-03T09:20:57.988Z,11.60
2019-05-03T09:23:31.189Z,11.90
2019-05-03T09:26:01.588Z,12.50
2019-05-03T09:28:31.973Z,13.00
2019-05-03T09:31:04.525Z,13.80
2019-05-03T09:33:35.674Z,14.40
2019-05-03T09:36:06.240Z,15.00
2019-05-03T09:38:36.606Z,15.60
2019-05-03T09:41:06.942Z,16.10
2019-05-03T09:43:37.436Z,16.50
2019-05-03T09:46:07.767Z,17.00
2019-05-03T09:48:38.295Z,17.50
2019-05-03T09:51:09.009Z,18.10
2019-05-03T09:53:55.468Z,18.60
2019-05-03T09:56:53.675Z,18.40
2019-05-03T09:59:15.994Z,17.90
2019-05-03T10:01:46.389Z,17.50
2019-05-03T10:04:18.061Z,17.10
2019-05-03T10:06:49.770Z,17.20
2019-05-03T10:09:20.204Z,17.70
2019-05-03T10:11:50.560Z,17.90
2019-05-03T10:14:20.920Z,18.30
2019-05-03T10:17:07.075Z,18.40
2019-05-03T10:19:40.254Z,17.90
2019-05-03T10:22:10.283Z,17.20
2019-05-03T10:24:40.681Z,16.40
2019-05-03T10:27:11.069Z,15.90
2019-05-03T10:29:41.634Z,15.70
2019-05-03T10:32:19.773Z,15.40
2019-05-03T10:34:59.013Z,15.00
2019-05-03T10:37:31.317Z,14.80
2019-05-03T10:40:07.752Z,15.20
2019-05-03T10:42:36.737Z,16.10
2019-05-03T10:45:07.647Z,16.60
2019-05-03T10:47:38.127Z,16.80
2019-05-03T10:50:09.016Z,17.30
2019-05-03T10:52:44.740Z,17.40
2019-05-03T10:55:16.038Z,17.60
2019-05-03T10:57:49.362Z,16.80
2019-05-03T11:00:42.539Z,16.20
2019-05-03T11:02:59.727Z,15.80
2019-05-03T11:05:30.114Z,16.00
2019-05-03T11:08:02.439Z,16.90
2019-05-03T11:10:32.841Z,17.00
2019-05-03T11:13:05.778Z,17.60
2019-05-03T11:15:35.487Z,17.90
2019-05-03T11:18:06.397Z,18.30
2019-05-03T11:20:37.495Z,18.30
2019-05-03T11:23:09.581Z,18.30
2019-05-03T11:25:39.953Z,18.60
2019-05-03T11:28:16.451Z,19.20
2019-05-03T11:30:55.612Z,19.80
2019-05-03T11:33:35.227Z,19.60
2019-05-03T11:36:21.162Z,19.50
2019-05-03T11:38:51.632Z,19.30
2019-05-03T11:41:30.247Z,18.90
2019-05-03T11:43:53.972Z,19.10
2019-05-03T11:46:24.814Z,19.10
2019-05-03T11:48:55.279Z,18.60
2019-05-03T11:51:25.983Z,18.10
2019-05-03T11:53:56.359Z,17.90
2019-05-03T11:56:27.303Z,18.40
2019-05-03T11:58:57.693Z,18.70
2019-05-03T12:01:40.626Z,19.10
2019-05-03T12:04:11.026Z,19.50
2019-05-03T12:06:41.457Z,19.50
2019-05-03T12:09:15.452Z,18.90
2019-05-03T12:11:45.369Z,18.70
2019-05-03T12:14:15.697Z,18.20
2019-05-03T12:17:14.417Z,17.40
2019-05-03T12:19:30.021Z,16.60
2019-05-03T12:21:57.044Z,15.90
2019-05-03T12:24:28.551Z,15.60
2019-05-03T12:26:59.533Z,15.50
2019-05-03T12:29:29.895Z,15.80
2019-05-03T12:32:00.263Z,16.70
2019-05-03T12:34:30.708Z,17.50
2019-05-03T12:37:01.199Z,18.20
2019-05-03T12:39:35.818Z,18.40
2019-05-03T12:42:07.575Z,18.30
2019-05-03T12:44:38.140Z,17.60
2019-05-03T12:47:09.349Z,17.10
2019-05-03T12:49:39.745Z,16.80
2019-05-03T12:52:10.581Z,16.40
2019-05-03T12:54:42.508Z,16.30
2019-05-03T12:57:13.191Z,16.30
2019-05-03T12:59:58.677Z,16.60
2019-05-03T13:02:44.513Z,17.10
2019-05-03T13:05:15.490Z,17.10
2019-05-03T13:08:05.579Z,16.70
2019-05-03T13:10:36.005Z,16.30
2019-05-03T13:13:06.464Z,15.70
2019-05-03T13:15:36.811Z,15.30
2019-05-03T13:18:07.662Z,15.20
2019-05-03T13:20:38.043Z,15.30
2019-05-03T13:23:08.406Z,15.30
2019-05-03T13:25:38.763Z,15.20
2019-05-03T13:28:09.438Z,15.00
2019-05-03T13:30:39.885Z,14.90
2019-05-03T13:33:10.370Z,14.90
2019-05-03T13:35:44.628Z,14.80
2019-05-03T13:38:15.278Z,14.80
2019-05-03T13:40:46.925Z,14.70
2019-05-03T13:43:17.221Z,14.60
2019-05-03T13:45:47.591Z,14.60
2019-05-03T13:48:20.938Z,14.50
2019-05-03T13:50:50.326Z,14.50
2019-05-03T13:53:20.675Z,14.40
2019-05-03T13:55:51.273Z,14.30
2019-05-03T13:58:21.593Z,14.20
2019-05-03T14:00:51.944Z,14.30
2019-05-03T14:03:22.343Z,14.30
2019-05-03T14:05:52.903Z,14.40
2019-05-03T14:08:25.284Z,14.30
2019-05-03T14:10:55.658Z,14.40
2019-05-03T14:13:26.307Z,14.40
2019-05-03T14:15:56.965Z,14.50
2019-05-03T14:18:27.325Z,14.40
2019-05-03T14:21:25.434Z,14.40
2019-05-03T14:24:11.176Z,14.50
2019-05-03T14:26:44.834Z,14.40
2019-05-03T14:29:15.351Z,14.30
2019-05-03T14:31:45.719Z,14.40
2019-05-03T14:34:17.446Z,14.50
2019-05-03T14:36:48.038Z,14.50
2019-05-03T14:39:18.413Z,14.50
2019-05-03T14:41:48.842Z,14.40
2019-05-03T14:44:19.186Z,14.30
2019-05-03T14:46:49.833Z,14.20
2019-05-03T14:49:20.183Z,14.10
2019-05-03T14:51:50.560Z,14.10
2019-05-03T14:54:22.467Z,14.00
2019-05-03T14:57:08.903Z,14.00
2019-05-03T15:00:01.317Z,14.10
2019-05-03T15:02:47.655Z,14.00
2019-05-03T15:05:15.069Z,13.80
2019-05-03T15:07:46.191Z,13.80
2019-05-03T15:10:17.901Z,13.80
2019-05-03T15:12:48.270Z,13.80
2019-05-03T15:15:19.063Z,13.90
2019-05-03T15:17:49.519Z,14.10
2019-05-03T15:20:20.285Z,14.00
2019-05-03T15:22:50.575Z,13.80
2019-05-03T15:25:21.093Z,13.70
2019-05-03T15:27:51.462Z,13.60
2019-05-03T15:30:21.877Z,13.50
2019-05-03T15:32:57.663Z,13.40
2019-05-03T15:35:25.870Z,13.30
2019-05-03T15:37:56.347Z,13.30
2019-05-03T15:40:27.900Z,13.20
2019-05-03T15:43:15.273Z,13.10
2019-05-03T15:46:05.533Z,13.10
2019-05-03T15:48:48.000Z,13.20
2019-05-03T15:51:18.397Z,13.30
2019-05-03T15:53:48.693Z,13.30
2019-05-03T15:56:19.364Z,13.30
2019-05-03T15:58:49.889Z,13.30
2019-05-03T16:01:20.285Z,13.40
2019-05-03T16:03:50.650Z,13.40
2019-05-03T16:06:20.958Z,13.40
2019-05-03T16:08:51.402Z,13.30
2019-05-03T16:11:21.729Z,13.30
2019-05-03T16:13:52.139Z,13.20
2019-05-03T16:16:22.522Z,13.20
2019-05-03T16:18:52.877Z,13.10
2019-05-03T16:21:25.053Z,13.00
2019-05-03T16:23:55.632Z,12.80
2019-05-03T16:26:27.252Z,12.80
2019-05-03T16:29:09.081Z,12.70
2019-05-03T16:31:39.604Z,12.70
2019-05-03T16:34:11.060Z,12.70
2019-05-03T16:36:41.501Z,12.70
2019-05-03T16:39:11.848Z,12.70
2019-05-03T16:41:44.738Z,12.80
2019-05-03T16:44:16.523Z,12.80
2019-05-03T16:46:47.433Z,12.80
2019-05-03T16:49:17.959Z,12.80
2019-05-03T16:51:48.284Z,12.80
2019-05-03T16:54:18.726Z,12.70
2019-05-03T16:56:49.044Z,12.70
2019-05-03T16:59:19.505Z,12.60
2019-05-03T17:01:49.872Z,12.60
2019-05-03T17:04:45.528Z,12.50
2019-05-03T17:07:37.930Z,12.40
2019-05-03T17:10:20.364Z,12.40
2019-05-03T17:12:50.748Z,12.20
2019-05-03T17:15:21.194Z,12.20
2019-05-03T17:17:51.880Z,12.10
2019-05-03T17:20:22.310Z,12.00
2019-05-03T17:22:52.826Z,12.00
2019-05-03T17:25:24.525Z,11.90
2019-05-03T17:27:55.229Z,11.80
2019-05-03T17:30:33.705Z,11.70
2019-05-03T17:32:57.704Z,11.60
2019-05-03T17:35:28.237Z,11.50
2019-05-03T17:37:59.712Z,11.50
2019-05-03T17:40:49.324Z,11.40
2019-05-03T17:43:35.740Z,11.50
2019-05-03T17:46:07.215Z,11.60
2019-05-03T17:48:37.693Z,11.60
2019-05-03T17:51:08.075Z,11.60
2019-05-03T17:53:57.376Z,11.50
2019-05-03T17:56:35.385Z,11.40
2019-05-03T17:59:16.387Z,11.40
2019-05-03T18:02:06.863Z,11.30
2019-05-03T18:04:48.038Z,11.30
2019-05-03T18:07:49.667Z,11.20
2019-05-03T18:10:20.028Z,11.10
2019-05-03T18:12:51.305Z,11.00
2019-05-03T18:15:21.636Z,11.10
2019-05-03T18:17:52.243Z,11.10
2019-05-03T18:20:22.632Z,11.20
2019-05-03T18:22:54.740Z,11.20
2019-05-03T18:25:25.162Z,11.20
2019-05-03T18:27:56.540Z,11.20
2019-05-03T18:30:27.335Z,11.10
2019-05-03T18:32:57.652Z,11.10
2019-05-03T18:35:28.118Z,11.10
2019-05-03T18:37:59.056Z,11.00
2019-05-03T18:40:31.232Z,11.00
2019-05-03T18:43:09.509Z,10.90
2019-05-03T18:45:57.544Z,10.90
2019-05-03T18:48:27.987Z,10.80
2019-05-03T18:50:58.354Z,10.70
2019-05-03T18:53:28.754Z,10.60
2019-05-03T18:55:59.186Z,10.50
2019-05-03T18:58:29.576Z,10.50
2019-05-03T19:01:01.172Z,10.40
2019-05-03T19:03:34.207Z,10.30
2019-05-03T19:06:08.376Z,10.30
2019-05-03T19:08:56.476Z,10.60
2019-05-03T19:11:36.802Z,11.10
2019-05-03T19:14:10.097Z,10.80
2019-05-03T19:16:50.148Z,10.60
2019-05-03T19:19:20.854Z,10.50
2019-05-03T19:21:51.276Z,10.20
2019-05-03T19:24:21.650Z,10.10
2019-05-03T19:26:52.036Z,9.90
2019-05-03T19:29:25.003Z,9.80
2019-05-03T19:31:55.444Z,9.60
2019-05-03T19:34:26.934Z,9.50
2019-05-03T19:36:57.376Z,9.40
2019-05-03T19:39:28.182Z,9.30
2019-05-03T19:41:58.556Z,9.20
2019-05-03T19:44:28.939Z,9.20
2019-05-03T19:46:59.219Z,9.00
2019-05-03T19:49:30.828Z,9.00
2019-05-03T19:52:02.162Z,9.00
2019-05-03T19:54:36.151Z,9.00
2019-05-03T19:57:05.043Z,9.00
2019-05-03T19:59:52.008Z,8.90
2019-05-03T20:02:35.170Z,8.90
2019-05-03T20:05:38.171Z,8.80
2019-05-03T20:08:16.829Z,8.80
2019-05-03T20:10:47.542Z,8.80
2019-05-03T20:13:18.042Z,8.80
2019-05-03T20:15:48.502Z,8.70
2019-05-03T20:18:18.900Z,8.70
2019-05-03T20:20:49.282Z,8.60
2019-05-03T20:23:19.702Z,8.60
2019-05-03T20:25:50.065Z,8.60
2019-05-03T20:28:20.382Z,8.60
2019-05-03T20:30:50.730Z,8.60
2019-05-03T20:33:21.210Z,8.50
2019-05-03T20:35:53.768Z,8.50
2019-05-03T20:38:24.621Z,8.40
2019-05-03T20:40:57.260Z,8.40
2019-05-03T20:43:52.210Z,8.40
2019-05-03T20:46:28.405Z,8.30
2019-05-03T20:49:01.856Z,8.30
2019-05-03T20:51:34.430Z,8.30
2019-05-03T20:54:04.984Z,8.30
2019-05-03T20:56:35.510Z,8.30
2019-05-03T20:59:05.964Z,8.20
2019-05-03T21:01:37.389Z,8.20
2019-05-03T21:04:07.712Z,8.10
2019-05-03T21:06:38.084Z,8.10
2019-05-03T21:09:09.548Z,8.10
2019-05-03T21:11:41.510Z,8.10
2019-05-03T21:14:12.145Z,8.10
2019-05-03T21:17:04.621Z,8.10
2019-05-03T21:19:57.191Z,8.10
2019-05-03T21:22:40.744Z,8.00
2019-05-03T21:25:26.148Z,8.00
2019-05-03T21:27:56.536Z,8.00
2019-05-03T21:30:26.848Z,8.00
2019-05-03T21:32:57.253Z,8.00
2019-05-03T21:35:39.409Z,8.00
2019-05-03T21:37:59.592Z,8.00
2019-05-03T21:40:29.939Z,8.00
2019-05-03T21:43:00.284Z,8.00
2019-05-03T21:45:42.526Z,8.00
2019-05-03T21:48:24.968Z,8.00
2019-05-03T21:50:55.196Z,8.00
2019-05-03T21:53:25.648Z,7.90
2019-05-03T21:55:56.232Z,8.00
2019-05-03T21:58:26.590Z,8.00
2019-05-03T22:01:01.782Z,8.00
2019-05-03T22:03:32.235Z,8.00
2019-05-03T22:06:02.563Z,8.00
2019-05-03T22:08:34.934Z,8.00
2019-05-03T22:11:05.386Z,8.00
2019-05-03T22:13:36.353Z,8.00
2019-05-03T22:16:15.379Z,8.00
2019-05-03T22:18:46.346Z,7.90
2019-05-03T22:21:36.988Z,7.90
2019-05-03T22:24:36.152Z,7.90
2019-05-03T22:27:10.881Z,7.80
2019-05-03T22:29:41.208Z,7.70
2019-05-03T22:32:11.738Z,7.60
2019-05-03T22:34:42.184Z,7.60
2019-05-03T22:37:14.276Z,7.50
2019-05-03T22:39:45.194Z,7.50
2019-05-03T22:42:17.226Z,7.50
2019-05-03T22:44:47.686Z,7.50
2019-05-03T22:47:18.164Z,7.40
2019-05-03T22:49:48.528Z,7.40
2019-05-03T22:52:18.916Z,7.40
2019-05-03T22:54:49.279Z,7.40
2019-05-03T22:57:19.639Z,7.40
2019-05-03T22:59:50.055Z,7.30
2019-05-03T23:02:20.476Z,7.30
2019-05-03T23:04:50.880Z,7.30
2019-05-03T23:07:21.440Z,7.20
2019-05-03T23:09:51.828Z,7.20
2019-05-03T23:12:22.410Z,7.10
2019-05-03T23:14:52.864Z,7.10
2019-05-03T23:17:25.420Z,7.10
2019-05-03T23:20:01.131Z,7.10
2019-05-03T23:22:32.588Z,7.00
2019-05-03T23:25:05.122Z,7.00
2019-05-03T23:27:35.472Z,7.00
2019-05-03T23:30:06.986Z,6.90
2019-05-03T23:32:37.730Z,6.90
2019-05-03T23:35:08.132Z,6.90
2019-05-03T23:37:38.683Z,6.90
2019-05-03T23:40:09.407Z,6.80
2019-05-03T23:42:39.739Z,6.80
2019-05-03T23:45:10.106Z,6.70
2019-05-03T23:47:45.216Z,6.60
2019-05-03T23:50:18.994Z,6.40
2019-05-03T23:52:49.352Z,6.30
2019-05-03T23:55:28.290Z,6.20
2019-05-03T23:57:58.680Z,6.10
